sensor_id;sensor_type;location;lat;lon;timestamp;pressure;altitude;pressure_sealevel;temperature;humidity
6851;BME280;3464;42.728;23.296;2024-03-23T00:52:50;95307.62;;;13.24;42.13
6851;BME280;3464;42.728;23.296;2024-03-23T00:55:17;95305.09;;;13.22;42.27
6851;BME280;3464;42.728;23.296;2024-03-23T00:57:44;95305.09;;;13.24;42.31
6851;BME280;3464;42.728;23.296;2024-03-23T01:00:11;95302.10;;;12.98;42.89
6851;BME280;3464;42.728;23.296;2024-03-23T01:02:37;95301.28;;;12.81;43.20
6851;BME280;3464;42.728;23.296;2024-03-23T01:05:04;95290.72;;;12.46;43.74
6851;BME280;3464;42.728;23.296;2024-03-23T01:07:31;95300.41;;;12.64;43.59
6851;BME280;3464;42.728;23.296;2024-03-23T01:09:57;95304.52;;;12.20;44.40
6851;BME280;3464;42.728;23.296;2024-03-23T01:12:24;95300.39;;;12.55;44.06
6851;BME280;3464;42.728;23.296;2024-03-23T01:14:50;95289.50;;;12.87;43.71
6851;BME280;3464;42.728;23.296;2024-03-23T01:17:17;95288.68;;;13.02;43.16
6851;BME280;3464;42.728;23.296;2024-03-23T01:19:43;95287.42;;;13.11;43.14
6851;BME280;3464;42.728;23.296;2024-03-23T01:22:10;95290.34;;;13.28;42.54
6851;BME280;3464;42.728;23.296;2024-03-23T01:24:37;95293.70;;;13.33;42.86
6851;BME280;3464;42.728;23.296;2024-03-23T01:27:03;95308.31;;;12.17;44.70
6851;BME280;3464;42.728;23.296;2024-03-23T01:29:30;95307.15;;;12.65;43.48
6851;BME280;3464;42.728;23.296;2024-03-23T01:31:56;95304.16;;;12.33;43.80
6851;BME280;3464;42.728;23.296;2024-03-23T01:34:23;95301.27;;;12.65;43.84
6851;BME280;3464;42.728;23.296;2024-03-23T01:36:49;95302.81;;;12.07;44.89
6851;BME280;3464;42.728;23.296;2024-03-23T01:39:17;95294.96;;;12.71;43.41
6851;BME280;3464;42.728;23.296;2024-03-23T01:41:43;95300.77;;;12.31;44.21
6851;BME280;3464;42.728;23.296;2024-03-23T01:44:10;95290.66;;;13.65;42.29
6851;BME280;3464;42.728;23.296;2024-03-23T01:46:37;95293.47;;;14.09;40.99
6851;BME280;3464;42.728;23.296;2024-03-23T01:49:05;95293.80;;;14.28;40.68
6851;BME280;3464;42.728;23.296;2024-03-23T01:51:32;95289.88;;;13.50;41.76
6851;BME280;3464;42.728;23.296;2024-03-23T01:53:58;95294.12;;;12.98;43.42
6851;BME280;3464;42.728;23.296;2024-03-23T01:56:25;95288.52;;;13.75;41.49
6851;BME280;3464;42.728;23.296;2024-03-23T01:58:51;95292.47;;;13.09;42.50
6851;BME280;3464;42.728;23.296;2024-03-23T02:01:18;95293.70;;;12.88;43.05
6851;BME280;3464;42.728;23.296;2024-03-23T02:03:44;95294.12;;;12.96;42.65
6851;BME280;3464;42.728;23.296;2024-03-23T02:06:11;95297.86;;;13.55;41.80
6851;BME280;3464;42.728;23.296;2024-03-23T02:08:38;95297.47;;;12.92;42.55
6851;BME280;3464;42.728;23.296;2024-03-23T02:11:04;95295.80;;;13.27;42.41
6851;BME280;3464;42.728;23.296;2024-03-23T02:13:31;95293.28;;;12.86;42.80
6851;BME280;3464;42.728;23.296;2024-03-23T02:15:57;95292.03;;;13.01;42.73
6851;BME280;3464;42.728;23.296;2024-03-23T02:18:24;95299.97;;;13.52;41.74
6851;BME280;3464;42.728;23.296;2024-03-23T02:20:50;95299.19;;;13.31;42.12
6851;BME280;3464;42.728;23.296;2024-03-23T02:23:17;95292.41;;;13.45;41.69
6851;BME280;3464;42.728;23.296;2024-03-23T02:25:44;95298.75;;;13.15;42.22
6851;BME280;3464;42.728;23.296;2024-03-23T02:28:11;95299.16;;;13.47;41.52
6851;BME280;3464;42.728;23.296;2024-03-23T02:30:40;95301.66;;;13.52;41.58
6851;BME280;3464;42.728;23.296;2024-03-23T02:33:06;95305.85;;;13.68;41.27
6851;BME280;3464;42.728;23.296;2024-03-23T02:35:33;95306.20;;;13.83;40.41
6851;BME280;3464;42.728;23.296;2024-03-23T02:37:59;95298.89;;;14.28;40.27
6851;BME280;3464;42.728;23.296;2024-03-23T02:40:26;95297.08;;;14.48;39.77
6851;BME280;3464;42.728;23.296;2024-03-23T02:42:54;95295.42;;;14.44;39.56
6851;BME280;3464;42.728;23.296;2024-03-23T02:45:20;95296.80;;;14.25;40.08
6851;BME280;3464;42.728;23.296;2024-03-23T02:47:47;95299.58;;;14.56;39.60
6851;BME280;3464;42.728;23.296;2024-03-23T02:50:14;95298.48;;;14.18;40.61
6851;BME280;3464;42.728;23.296;2024-03-23T02:52:41;95293.84;;;14.23;39.77
6851;BME280;3464;42.728;23.296;2024-03-23T02:55:07;95290.83;;;14.31;40.03
6851;BME280;3464;42.728;23.296;2024-03-23T02:57:34;95293.98;;;13.82;40.62
6851;BME280;3464;42.728;23.296;2024-03-23T03:00:00;95291.90;;;13.76;40.62
6851;BME280;3464;42.728;23.296;2024-03-23T03:02:27;95289.05;;;13.46;41.32
6851;BME280;3464;42.728;23.296;2024-03-23T03:04:54;95289.84;;;13.54;41.23
6851;BME280;3464;42.728;23.296;2024-03-23T03:07:20;95287.81;;;13.28;41.51
6851;BME280;3464;42.728;23.296;2024-03-23T03:09:47;95287.36;;;13.36;41.30
6851;BME280;3464;42.728;23.296;2024-03-23T03:12:13;95293.70;;;13.40;41.27
6851;BME280;3464;42.728;23.296;2024-03-23T03:14:40;95291.57;;;13.44;41.23
6851;BME280;3464;42.728;23.296;2024-03-23T03:17:06;95289.08;;;13.30;41.44
6851;BME280;3464;42.728;23.296;2024-03-23T03:19:33;95292.44;;;12.94;42.27
6851;BME280;3464;42.728;23.296;2024-03-23T03:22:00;95296.60;;;12.39;43.64
6851;BME280;3464;42.728;23.296;2024-03-23T03:24:27;95296.66;;;13.22;42.29
6851;BME280;3464;42.728;23.296;2024-03-23T03:26:53;95294.12;;;12.71;42.54
6851;BME280;3464;42.728;23.296;2024-03-23T03:29:20;95298.73;;;12.51;43.31
6851;BME280;3464;42.728;23.296;2024-03-23T03:31:46;95291.98;;;12.54;43.61
6851;BME280;3464;42.728;23.296;2024-03-23T03:34:13;95295.39;;;12.73;42.86
6851;BME280;3464;42.728;23.296;2024-03-23T03:36:39;95294.97;;;12.97;42.70
6851;BME280;3464;42.728;23.296;2024-03-23T03:39:06;95291.16;;;12.81;42.70
6851;BME280;3464;42.728;23.296;2024-03-23T03:41:33;95295.81;;;12.90;42.56
6851;BME280;3464;42.728;23.296;2024-03-23T03:44:00;95295.39;;;12.90;42.50
6851;BME280;3464;42.728;23.296;2024-03-23T03:46:27;95296.22;;;12.84;42.38
6851;BME280;3464;42.728;23.296;2024-03-23T03:48:54;95294.14;;;13.13;41.84
6851;BME280;3464;42.728;23.296;2024-03-23T03:51:21;95296.63;;;12.85;42.48
6851;BME280;3464;42.728;23.296;2024-03-23T03:53:48;95299.58;;;12.98;42.40
6851;BME280;3464;42.728;23.296;2024-03-23T03:56:14;95295.38;;;12.82;42.79
6851;BME280;3464;42.728;23.296;2024-03-23T03:58:41;95300.39;;;12.52;43.36
6851;BME280;3464;42.728;23.296;2024-03-23T04:01:07;95302.11;;;12.69;42.97
6851;BME280;3464;42.728;23.296;2024-03-23T04:03:34;95297.90;;;12.97;42.37
6851;BME280;3464;42.728;23.296;2024-03-23T04:06:01;95294.53;;;12.89;42.43
6851;BME280;3464;42.728;23.296;2024-03-23T04:08:27;95297.48;;;12.85;42.67
6851;BME280;3464;42.728;23.296;2024-03-23T04:10:55;95302.13;;;12.92;42.49
6851;BME280;3464;42.728;23.296;2024-03-23T04:13:21;95304.23;;;12.84;42.80
6851;BME280;3464;42.728;23.296;2024-03-23T04:15:48;95313.05;;;12.82;42.81
6851;BME280;3464;42.728;23.296;2024-03-23T04:18:15;95297.83;;;12.40;43.44
6851;BME280;3464;42.728;23.296;2024-03-23T04:20:41;95310.50;;;12.57;43.13
6851;BME280;3464;42.728;23.296;2024-03-23T04:23:08;95313.00;;;12.46;43.47
6851;BME280;3464;42.728;23.296;2024-03-23T04:25:34;95306.70;;;12.50;43.34
6851;BME280;3464;42.728;23.296;2024-03-23T04:28:01;95313.42;;;12.38;43.64
6851;BME280;3464;42.728;23.296;2024-03-23T04:30:27;95310.96;;;12.81;42.81
6851;BME280;3464;42.728;23.296;2024-03-23T04:32:54;95306.74;;;12.89;42.57
6851;BME280;3464;42.728;23.296;2024-03-23T04:35:21;95310.53;;;12.65;42.68
6851;BME280;3464;42.728;23.296;2024-03-23T04:37:47;95309.94;;;12.06;43.64
6851;BME280;3464;42.728;23.296;2024-03-23T04:40:14;95318.41;;;12.17;43.60
6851;BME280;3464;42.728;23.296;2024-03-23T04:42:40;95325.58;;;12.24;43.68
6851;BME280;3464;42.728;23.296;2024-03-23T04:45:07;95319.80;;;12.93;42.78
6851;BME280;3464;42.728;23.296;2024-03-23T04:47:34;95313.61;;;15.54;39.20
6851;BME280;3464;42.728;23.296;2024-03-23T04:50:02;95308.28;;;17.81;35.90
6851;BME280;3464;42.728;23.296;2024-03-23T04:52:28;95308.94;;;19.47;34.21
6851;BME280;3464;42.728;23.296;2024-03-23T04:54:55;95309.03;;;21.09;31.77
6851;BME280;3464;42.728;23.296;2024-03-23T04:57:22;95311.33;;;21.95;30.64
6851;BME280;3464;42.728;23.296;2024-03-23T04:59:48;95307.39;;;23.34;29.16
6851;BME280;3464;42.728;23.296;2024-03-23T05:02:15;95299.35;;;24.23;28.12
6851;BME280;3464;42.728;23.296;2024-03-23T05:04:41;95295.86;;;25.09;27.14
6851;BME280;3464;42.728;23.296;2024-03-23T05:07:08;95291.74;;;25.92;26.30
6851;BME280;3464;42.728;23.296;2024-03-23T05:09:34;95291.59;;;27.05;24.62
6851;BME280;3464;42.728;23.296;2024-03-23T05:12:01;95298.03;;;27.62;24.03
6851;BME280;3464;42.728;23.296;2024-03-23T05:14:28;95289.48;;;27.23;24.71
6851;BME280;3464;42.728;23.296;2024-03-23T05:16:55;95290.55;;;27.79;23.81
6851;BME280;3464;42.728;23.296;2024-03-23T05:19:22;95282.41;;;28.85;22.37
6851;BME280;3464;42.728;23.296;2024-03-23T05:21:48;95286.05;;;30.15;21.85
6851;BME280;3464;42.728;23.296;2024-03-23T05:24:15;95289.77;;;30.36;21.74
6851;BME280;3464;42.728;23.296;2024-03-23T05:26:42;95284.68;;;29.57;21.65
6851;BME280;3464;42.728;23.296;2024-03-23T05:29:08;95289.92;;;26.51;23.79
6851;BME280;3464;42.728;23.296;2024-03-23T05:31:35;95289.63;;;27.44;23.64
6851;BME280;3464;42.728;23.296;2024-03-23T05:34:01;95293.87;;;28.54;22.80
6851;BME280;3464;42.728;23.296;2024-03-23T05:36:28;95291.97;;;31.22;20.56
6851;BME280;3464;42.728;23.296;2024-03-23T05:38:55;95293.80;;;32.08;19.86
6851;BME280;3464;42.728;23.296;2024-03-23T05:41:21;95291.73;;;31.43;20.11
6851;BME280;3464;42.728;23.296;2024-03-23T05:43:48;95292.44;;;31.27;20.39
6851;BME280;3464;42.728;23.296;2024-03-23T05:46:15;95288.02;;;32.21;18.81
6851;BME280;3464;42.728;23.296;2024-03-23T05:48:41;95287.16;;;32.89;19.25
6851;BME280;3464;42.728;23.296;2024-03-23T05:51:09;95292.03;;;32.88;18.89
6851;BME280;3464;42.728;23.296;2024-03-23T05:53:35;95291.50;;;33.53;18.41
6851;BME280;3464;42.728;23.296;2024-03-23T05:56:03;95285.28;;;35.33;17.64
6851;BME280;3464;42.728;23.296;2024-03-23T05:58:30;95286.91;;;32.64;18.77
6851;BME280;3464;42.728;23.296;2024-03-23T06:00:59;95287.06;;;33.44;18.45
6851;BME280;3464;42.728;23.296;2024-03-23T06:03:26;95282.19;;;36.24;17.22
6851;BME280;3464;42.728;23.296;2024-03-23T06:05:53;95277.38;;;36.62;16.69
6851;BME280;3464;42.728;23.296;2024-03-23T06:08:19;95274.58;;;38.07;15.90
6851;BME280;3464;42.728;23.296;2024-03-23T06:10:46;95279.47;;;37.44;16.24
6851;BME280;3464;42.728;23.296;2024-03-23T06:13:12;95280.07;;;37.11;16.40
6851;BME280;3464;42.728;23.296;2024-03-23T06:15:39;95273.60;;;35.52;17.27
6851;BME280;3464;42.728;23.296;2024-03-23T06:18:05;95278.97;;;36.82;16.65
6851;BME280;3464;42.728;23.296;2024-03-23T06:20:36;95273.16;;;36.60;16.71
6851;BME280;3464;42.728;23.296;2024-03-23T06:23:03;95278.85;;;36.04;17.08
6851;BME280;3464;42.728;23.296;2024-03-23T06:25:30;95271.83;;;36.47;16.69
6851;BME280;3464;42.728;23.296;2024-03-23T06:27:56;95278.84;;;34.01;17.58
6851;BME280;3464;42.728;23.296;2024-03-23T06:30:24;95275.39;;;33.59;18.47
6851;BME280;3464;42.728;23.296;2024-03-23T06:32:51;95274.02;;;34.93;17.76
6851;BME280;3464;42.728;23.296;2024-03-23T06:35:17;95270.79;;;37.12;16.36
6851;BME280;3464;42.728;23.296;2024-03-23T06:37:44;95264.56;;;38.62;15.60
6851;BME280;3464;42.728;23.296;2024-03-23T06:40:10;95270.53;;;39.02;15.29
6851;BME280;3464;42.728;23.296;2024-03-23T06:42:37;95269.42;;;38.01;15.68
6851;BME280;3464;42.728;23.296;2024-03-23T06:45:04;95268.85;;;39.13;15.43
6851;BME280;3464;42.728;23.296;2024-03-23T06:47:31;95265.11;;;39.45;15.13
6851;BME280;3464;42.728;23.296;2024-03-23T06:49:59;95269.13;;;39.38;14.98
6851;BME280;3464;42.728;23.296;2024-03-23T06:52:24;95249.31;;;39.69;14.88
6851;BME280;3464;42.728;23.296;2024-03-23T06:54:50;95265.73;;;40.68;14.37
6851;BME280;3464;42.728;23.296;2024-03-23T06:57:17;95270.89;;;39.56;14.96
6851;BME280;3464;42.728;23.296;2024-03-23T06:59:44;95268.80;;;38.97;15.25
6851;BME280;3464;42.728;23.296;2024-03-23T07:02:10;95266.50;;;38.94;15.24
6851;BME280;3464;42.728;23.296;2024-03-23T07:04:37;95266.68;;;35.36;17.31
6851;BME280;3464;42.728;23.296;2024-03-23T07:07:04;95273.47;;;28.55;21.22
6851;BME280;3464;42.728;23.296;2024-03-23T07:09:30;95279.12;;;21.11;28.48
6851;BME280;3464;42.728;23.296;2024-03-23T07:11:57;95279.81;;;19.69;30.46
6851;BME280;3464;42.728;23.296;2024-03-23T07:14:24;95280.31;;;20.58;30.35
6851;BME280;3464;42.728;23.296;2024-03-23T07:16:50;95283.37;;;20.11;30.83
6851;BME280;3464;42.728;23.296;2024-03-23T07:19:17;95277.50;;;19.92;31.19
6851;BME280;3464;42.728;23.296;2024-03-23T07:21:44;95273.77;;;19.57;31.61
6851;BME280;3464;42.728;23.296;2024-03-23T07:24:12;95276.83;;;19.71;31.74
6851;BME280;3464;42.728;23.296;2024-03-23T07:26:39;95260.68;;;21.14;30.34
6851;BME280;3464;42.728;23.296;2024-03-23T07:29:06;95267.20;;;19.95;32.01
6851;BME280;3464;42.728;23.296;2024-03-23T07:31:32;95271.48;;;19.78;32.03
6851;BME280;3464;42.728;23.296;2024-03-23T07:33:59;95265.66;;;19.89;31.80
6851;BME280;3464;42.728;23.296;2024-03-23T07:36:25;95262.92;;;20.56;31.34
6851;BME280;3464;42.728;23.296;2024-03-23T07:38:52;95259.63;;;20.37;31.37
6851;BME280;3464;42.728;23.296;2024-03-23T07:41:19;95263.42;;;20.67;31.12
6851;BME280;3464;42.728;23.296;2024-03-23T07:43:46;95252.52;;;21.54;30.04
6851;BME280;3464;42.728;23.296;2024-03-23T07:46:12;95250.45;;;21.00;31.15
6851;BME280;3464;42.728;23.296;2024-03-23T07:48:39;95251.16;;;20.78;31.09
6851;BME280;3464;42.728;23.296;2024-03-23T07:51:21;95245.28;;;21.00;31.29
6851;BME280;3464;42.728;23.296;2024-03-23T07:53:46;95247.39;;;20.62;32.41
6851;BME280;3464;42.728;23.296;2024-03-23T07:56:15;95247.58;;;19.34;33.22
6851;BME280;3464;42.728;23.296;2024-03-23T07:58:41;95250.56;;;20.12;32.27
6851;BME280;3464;42.728;23.296;2024-03-23T08:01:09;95249.96;;;20.18;32.38
6851;BME280;3464;42.728;23.296;2024-03-23T08:03:35;95244.72;;;20.23;32.09
6851;BME280;3464;42.728;23.296;2024-03-23T08:06:10;95246.91;;;20.05;32.60
6851;BME280;3464;42.728;23.296;2024-03-23T08:08:36;95240.54;;;20.34;32.23
6851;BME280;3464;42.728;23.296;2024-03-23T08:11:03;95236.16;;;20.93;32.21
6851;BME280;3464;42.728;23.296;2024-03-23T08:13:29;95235.45;;;21.53;31.55
6851;BME280;3464;42.728;23.296;2024-03-23T08:15:57;95233.08;;;20.27;32.22
6851;BME280;3464;42.728;23.296;2024-03-23T08:18:23;95239.14;;;19.94;32.50
6851;BME280;3464;42.728;23.296;2024-03-23T08:20:59;95225.85;;;20.96;31.32
6851;BME280;3464;42.728;23.296;2024-03-23T08:23:26;95232.19;;;21.24;31.27
6851;BME280;3464;42.728;23.296;2024-03-23T08:25:52;95222.37;;;21.61;30.90
6851;BME280;3464;42.728;23.296;2024-03-23T08:28:19;95223.25;;;21.72;30.64
6851;BME280;3464;42.728;23.296;2024-03-23T08:30:46;95221.58;;;21.10;31.11
6851;BME280;3464;42.728;23.296;2024-03-23T08:33:12;95220.43;;;21.44;31.08
6851;BME280;3464;42.728;23.296;2024-03-23T08:35:39;95220.88;;;21.30;31.42
6851;BME280;3464;42.728;23.296;2024-03-23T08:38:05;95213.89;;;21.84;30.78
6851;BME280;3464;42.728;23.296;2024-03-23T08:40:32;95217.58;;;21.88;30.61
6851;BME280;3464;42.728;23.296;2024-03-23T08:42:59;95214.04;;;21.18;31.81
6851;BME280;3464;42.728;23.296;2024-03-23T08:45:25;95213.44;;;20.29;32.61
6851;BME280;3464;42.728;23.296;2024-03-23T08:47:52;95204.55;;;21.21;31.83
6851;BME280;3464;42.728;23.296;2024-03-23T08:50:18;95198.34;;;21.40;31.14
6851;BME280;3464;42.728;23.296;2024-03-23T08:52:45;95196.72;;;21.62;31.18
6851;BME280;3464;42.728;23.296;2024-03-23T08:55:11;95194.28;;;21.95;30.66
6851;BME280;3464;42.728;23.296;2024-03-23T08:57:38;95185.48;;;22.24;30.37
6851;BME280;3464;42.728;23.296;2024-03-23T09:00:06;95184.80;;;21.73;30.92
6851;BME280;3464;42.728;23.296;2024-03-23T09:02:33;95181.21;;;21.78;31.19
6851;BME280;3464;42.728;23.296;2024-03-23T09:04:59;95178.50;;;21.82;31.32
6851;BME280;3464;42.728;23.296;2024-03-23T09:07:26;95173.65;;;22.42;30.50
6851;BME280;3464;42.728;23.296;2024-03-23T09:09:52;95161.15;;;22.78;30.16
6851;BME280;3464;42.728;23.296;2024-03-23T09:15:26;95163.52;;;21.71;31.21
6851;BME280;3464;42.728;23.296;2024-03-23T09:17:52;95159.23;;;21.71;31.22
6851;BME280;3464;42.728;23.296;2024-03-23T09:20:19;95145.99;;;22.72;30.18
6851;BME280;3464;42.728;23.296;2024-03-23T09:22:47;95149.91;;;22.48;30.65
6851;BME280;3464;42.728;23.296;2024-03-23T09:25:13;95144.44;;;22.13;31.36
6851;BME280;3464;42.728;23.296;2024-03-23T09:27:41;95146.59;;;22.02;30.99
6851;BME280;3464;42.728;23.296;2024-03-23T09:30:12;95137.55;;;23.11;29.97
6851;BME280;3464;42.728;23.296;2024-03-23T09:32:39;95131.25;;;23.08;30.67
6851;BME280;3464;42.728;23.296;2024-03-23T09:35:09;95126.11;;;23.29;30.17
6851;BME280;3464;42.728;23.296;2024-03-23T09:37:45;95117.88;;;23.71;29.08
6851;BME280;3464;42.728;23.296;2024-03-23T09:40:16;95118.12;;;23.73;29.32
6851;BME280;3464;42.728;23.296;2024-03-23T09:42:43;95107.87;;;24.10;29.10
6851;BME280;3464;42.728;23.296;2024-03-23T09:45:11;95104.48;;;22.93;29.44
6851;BME280;3464;42.728;23.296;2024-03-23T09:47:36;95103.17;;;23.53;29.14
6851;BME280;3464;42.728;23.296;2024-03-23T09:50:03;95102.57;;;23.18;29.39
6851;BME280;3464;42.728;23.296;2024-03-23T09:52:35;95097.39;;;23.29;29.76
6851;BME280;3464;42.728;23.296;2024-03-23T09:55:01;95093.91;;;23.49;29.29
6851;BME280;3464;42.728;23.296;2024-03-23T09:57:28;95086.33;;;23.66;28.75
6851;BME280;3464;42.728;23.296;2024-03-23T09:59:55;95086.82;;;24.29;28.79
6851;BME280;3464;42.728;23.296;2024-03-23T10:02:22;95073.34;;;23.69;29.42
6851;BME280;3464;42.728;23.296;2024-03-23T10:04:49;95075.02;;;24.07;28.87
6851;BME280;3464;42.728;23.296;2024-03-23T10:07:19;95067.45;;;24.83;28.04
6851;BME280;3464;42.728;23.296;2024-03-23T10:09:45;95064.29;;;24.17;28.21
6851;BME280;3464;42.728;23.296;2024-03-23T10:12:12;95060.92;;;24.68;28.30
6851;BME280;3464;42.728;23.296;2024-03-23T10:14:41;95067.16;;;24.10;28.79
6851;BME280;3464;42.728;23.296;2024-03-23T10:17:13;95058.01;;;23.95;29.49
6851;BME280;3464;42.728;23.296;2024-03-23T10:19:41;95056.45;;;24.88;27.65
6851;BME280;3464;42.728;23.296;2024-03-23T10:22:09;95053.88;;;24.80;27.69
6851;BME280;3464;42.728;23.296;2024-03-23T10:24:35;95049.86;;;24.75;27.87
6851;BME280;3464;42.728;23.296;2024-03-23T10:27:02;95038.75;;;24.99;27.54
6851;BME280;3464;42.728;23.296;2024-03-23T10:29:28;95042.39;;;24.34;27.70
6851;BME280;3464;42.728;23.296;2024-03-23T10:32:07;95036.55;;;24.83;27.15
6851;BME280;3464;42.728;23.296;2024-03-23T10:34:25;95032.33;;;25.48;26.68
6851;BME280;3464;42.728;23.296;2024-03-23T10:36:53;95026.17;;;24.85;27.32
6851;BME280;3464;42.728;23.296;2024-03-23T10:39:20;95014.30;;;25.15;27.03
6851;BME280;3464;42.728;23.296;2024-03-23T10:41:48;95011.64;;;25.34;26.87
6851;BME280;3464;42.728;23.296;2024-03-23T10:44:13;95006.75;;;24.53;27.08
6851;BME280;3464;42.728;23.296;2024-03-23T10:46:40;95001.16;;;25.04;26.38
6851;BME280;3464;42.728;23.296;2024-03-23T10:49:07;94994.00;;;25.81;25.52
6851;BME280;3464;42.728;23.296;2024-03-23T10:51:33;94987.95;;;25.98;25.29
6851;BME280;3464;42.728;23.296;2024-03-23T10:54:00;94978.97;;;26.12;25.27
6851;BME280;3464;42.728;23.296;2024-03-23T10:56:26;94969.66;;;25.32;25.90
6851;BME280;3464;42.728;23.296;2024-03-23T10:58:53;94968.51;;;25.45;26.15
6851;BME280;3464;42.728;23.296;2024-03-23T11:01:20;94964.05;;;25.71;25.71
6851;BME280;3464;42.728;23.296;2024-03-23T11:03:46;94963.08;;;25.96;25.11
6851;BME280;3464;42.728;23.296;2024-03-23T11:08:51;94942.55;;;26.10;25.80
6851;BME280;3464;42.728;23.296;2024-03-23T11:11:19;94940.45;;;26.24;25.01
6851;BME280;3464;42.728;23.296;2024-03-23T11:13:47;94932.84;;;26.51;24.53
6851;BME280;3464;42.728;23.296;2024-03-23T11:16:17;94930.47;;;26.32;24.95
6851;BME280;3464;42.728;23.296;2024-03-23T11:18:43;94923.56;;;26.55;24.65
6851;BME280;3464;42.728;23.296;2024-03-23T11:21:10;94916.87;;;26.15;25.04
6851;BME280;3464;42.728;23.296;2024-03-23T11:23:36;94912.55;;;25.62;25.18
6851;BME280;3464;42.728;23.296;2024-03-23T11:26:06;94912.23;;;25.83;24.79
6851;BME280;3464;42.728;23.296;2024-03-23T11:28:30;94910.60;;;25.89;24.78
6851;BME280;3464;42.728;23.296;2024-03-23T11:30:58;94904.89;;;25.53;25.27
6851;BME280;3464;42.728;23.296;2024-03-23T11:33:24;94905.38;;;24.31;26.33
6851;BME280;3464;42.728;23.296;2024-03-23T11:35:51;94900.88;;;25.24;25.41
6851;BME280;3464;42.728;23.296;2024-03-23T11:38:18;94899.16;;;25.01;25.82
6851;BME280;3464;42.728;23.296;2024-03-23T11:40:46;94892.09;;;25.98;24.97
6851;BME280;3464;42.728;23.296;2024-03-23T11:43:13;94887.08;;;25.87;24.74
6851;BME280;3464;42.728;23.296;2024-03-23T11:45:40;94880.23;;;25.72;24.85
6851;BME280;3464;42.728;23.296;2024-03-23T11:48:07;94867.52;;;26.64;24.45
6851;BME280;3464;42.728;23.296;2024-03-23T11:50:33;94865.30;;;25.62;24.76
6851;BME280;3464;42.728;23.296;2024-03-23T11:53:09;94867.22;;;25.20;24.92
6851;BME280;3464;42.728;23.296;2024-03-23T11:55:51;94858.16;;;25.59;24.37
6851;BME280;3464;42.728;23.296;2024-03-23T11:58:20;94852.50;;;25.60;24.40
6851;BME280;3464;42.728;23.296;2024-03-23T12:00:57;94848.63;;;25.60;24.41
6851;BME280;3464;42.728;23.296;2024-03-23T12:03:24;94835.16;;;26.15;23.65
6851;BME280;3464;42.728;23.296;2024-03-23T12:05:52;94832.58;;;26.22;23.66
6851;BME280;3464;42.728;23.296;2024-03-23T12:08:20;94828.69;;;26.23;23.68
6851;BME280;3464;42.728;23.296;2024-03-23T12:10:48;94819.63;;;27.07;23.10
6851;BME280;3464;42.728;23.296;2024-03-23T12:13:16;94815.18;;;27.16;22.98
6851;BME280;3464;42.728;23.296;2024-03-23T12:15:44;94810.08;;;26.39;23.21
6851;BME280;3464;42.728;23.296;2024-03-23T12:18:20;94810.67;;;26.43;23.42
6851;BME280;3464;42.728;23.296;2024-03-23T12:21:00;94814.08;;;25.78;24.23
6851;BME280;3464;42.728;23.296;2024-03-23T12:23:29;94807.62;;;26.66;23.67
6851;BME280;3464;42.728;23.296;2024-03-23T12:25:59;94805.06;;;25.71;24.87
6851;BME280;3464;42.728;23.296;2024-03-23T12:28:36;94808.75;;;25.29;24.08
6851;BME280;3464;42.728;23.296;2024-03-23T12:31:03;94792.67;;;26.21;23.54
6851;BME280;3464;42.728;23.296;2024-03-23T12:33:30;94792.41;;;25.52;23.75
6851;BME280;3464;42.728;23.296;2024-03-23T12:35:56;94783.95;;;26.23;22.68
6851;BME280;3464;42.728;23.296;2024-03-23T12:38:23;94776.45;;;26.69;22.79
6851;BME280;3464;42.728;23.296;2024-03-23T12:40:50;94778.73;;;26.66;23.05
6851;BME280;3464;42.728;23.296;2024-03-23T12:43:17;94768.94;;;26.57;22.56
6851;BME280;3464;42.728;23.296;2024-03-23T12:45:48;94773.51;;;25.45;23.38
6851;BME280;3464;42.728;23.296;2024-03-23T12:48:14;94769.48;;;25.24;22.66
6851;BME280;3464;42.728;23.296;2024-03-23T12:50:41;94766.16;;;25.00;22.98
6851;BME280;3464;42.728;23.296;2024-03-23T12:53:07;94762.23;;;25.76;22.65
6851;BME280;3464;42.728;23.296;2024-03-23T12:55:35;94753.73;;;26.46;21.59
6851;BME280;3464;42.728;23.296;2024-03-23T12:58:01;94746.44;;;27.34;21.17
6851;BME280;3464;42.728;23.296;2024-03-23T13:00:28;94741.69;;;26.67;20.99
6851;BME280;3464;42.728;23.296;2024-03-23T13:02:55;94735.27;;;27.53;20.42
6851;BME280;3464;42.728;23.296;2024-03-23T13:05:21;94739.72;;;26.98;19.49
6851;BME280;3464;42.728;23.296;2024-03-23T13:07:49;94735.52;;;26.96;19.58
6851;BME280;3464;42.728;23.296;2024-03-23T13:10:16;94733.17;;;27.65;19.23
6851;BME280;3464;42.728;23.296;2024-03-23T13:12:42;94728.30;;;27.73;19.53
6851;BME280;3464;42.728;23.296;2024-03-23T13:15:09;94727.00;;;27.01;19.82
6851;BME280;3464;42.728;23.296;2024-03-23T13:17:36;94721.03;;;26.39;20.33
6851;BME280;3464;42.728;23.296;2024-03-23T13:20:03;94722.03;;;26.72;20.64
6851;BME280;3464;42.728;23.296;2024-03-23T13:22:30;94718.14;;;27.19;20.32
6851;BME280;3464;42.728;23.296;2024-03-23T13:24:58;94713.30;;;26.80;20.37
6851;BME280;3464;42.728;23.296;2024-03-23T13:27:24;94710.09;;;26.49;20.08
6851;BME280;3464;42.728;23.296;2024-03-23T13:29:51;94710.65;;;27.21;19.56
6851;BME280;3464;42.728;23.296;2024-03-23T13:32:18;94712.59;;;26.91;19.79
6851;BME280;3464;42.728;23.296;2024-03-23T13:34:44;94702.00;;;26.41;20.58
6851;BME280;3464;42.728;23.296;2024-03-23T13:37:11;94697.94;;;26.57;20.57
6851;BME280;3464;42.728;23.296;2024-03-23T13:39:38;94698.63;;;26.74;20.40
6851;BME280;3464;42.728;23.296;2024-03-23T13:42:05;94697.05;;;26.03;20.47
6851;BME280;3464;42.728;23.296;2024-03-23T13:44:32;94687.11;;;27.12;19.86
6851;BME280;3464;42.728;23.296;2024-03-23T13:47:00;94685.05;;;27.50;19.53
6851;BME280;3464;42.728;23.296;2024-03-23T13:49:27;94684.39;;;26.68;19.83
6851;BME280;3464;42.728;23.296;2024-03-23T13:52:02;94680.00;;;26.14;20.38
6851;BME280;3464;42.728;23.296;2024-03-23T13:54:28;94671.77;;;26.70;19.67
6851;BME280;3464;42.728;23.296;2024-03-23T13:56:55;94670.02;;;27.36;19.48
6851;BME280;3464;42.728;23.296;2024-03-23T13:59:22;94669.81;;;27.65;19.34
6851;BME280;3464;42.728;23.296;2024-03-23T14:01:50;94667.06;;;27.67;19.16
6851;BME280;3464;42.728;23.296;2024-03-23T14:04:17;94666.28;;;27.86;19.40
6851;BME280;3464;42.728;23.296;2024-03-23T14:06:44;94660.00;;;27.38;19.45